Laurent Verva

Laurent Verva

Statistiques 2026

  • Courses courues : 42
  • Nb de victoires : -
  • Nb de places : 1
  • Écart gagnant : 143
  • Réussite à la gagne : -
  • Réussite à la place : 2%
Musique : 0a 8a 4a 6a 6a 0a 5a 5a Da 2a 9a 6a 5a Da 6a 0a 7a 4a
DateRangCatégorieAlloc.Dist.HippodromeChevalRed. KmSpé.
01/07/19 D Trot 15 000€ 2 825m Le Croise Laroche Elokai Attelé
06/07/19 D Trot 13 000€ 2 400m Amiens Gatoune de l'Ancre Attelé
06/07/19 4 Trot 12 000€ 2 900m Amiens Filae des Salines 1'18"5 Attelé
06/07/19 3 Trot 12 000€ 2 900m Amiens Filou de Fromiee 1'18"5 Attelé
07/07/19 D Trot 12 000€ 2 625m Saint Omer Gazaro Mencourt Attelé
07/07/19 5 Trot 13 000€ 2 625m Saint Omer First du Rouilly 1'19"2 Attelé
07/07/19 D Trot 13 000€ 2 625m Saint Omer Fysalia Attelé
07/07/19 4 Trot 19 000€ 2 650m Saint Omer Buxus Calendes 1'15"2 Attelé
07/07/19 1 Trot 14 000€ 3 200m Saint Omer Ethano de Bouteau 1'18"1 Attelé
13/07/19 D Trot 12 000€ 2 825m Compiegne Felinara Attelé
14/07/19 1 Trot 11 000€ 2 550m Gournay En Bray Fille des Marais Attelé
14/07/19 D Trot 11 000€ 2 550m Gournay En Bray Favorite du Derby Attelé
14/07/19 2 Trot 11 000€ 2 550m Gournay En Bray French Flair Attelé
14/07/19 2 Trot 13 000€ 2 575m Gournay En Bray Ethano de Bouteau Attelé
16/07/19 D Trot 19 000€ 2 750m Cabourg Fire Bird Attelé
16/07/19 9 Trot 19 000€ 2 750m Cabourg Gitane des Marais 1'19"6 Attelé
20/07/19 D Trot 12 000€ 3 000m Montier En Der Gazaro Mencourt Attelé
20/07/19 D Trot 11 000€ 3 025m Montier En Der Fille des Marais Attelé
20/07/19 8 Trot 11 000€ 3 000m Montier En Der Fee du Houlet 1'26"0 Attelé
20/07/19 3 Trot 14 000€ 3 000m Montier En Der Dulcinee d'Arbaz 1'19"6 Attelé
20/07/19 D Trot 19 000€ 3 025m Montier En Der Aslak Attelé
21/07/19 9 Trot 16 000€ 2 700m La Capelle Gatoune de l'Ancre 1'19"3 Attelé
21/07/19 D Trot 16 000€ 2 700m La Capelle For Ever Mencourt Attelé
21/07/19 4 Trot 18 000€ 2 750m La Capelle Diacre des Tithais 1'15"6 Attelé
21/07/19 2 Trot 20 000€ 2 750m La Capelle Esther du Ganep 1'16"1 Attelé
21/07/19 2 Trot 23 000€ 2 700m La Capelle Cannelle d'As 1'16"1 Attelé
21/07/19 D Trot 20 000€ 2 750m La Capelle Eole Chatho Attelé
24/07/19 5 Trot 19 000€ 2 400m Amiens Daisy de la Folie 1'15"4 Attelé
24/07/19 3 Trot 17 000€ 2 400m Amiens Fortune de Cerisy 1'17"2 Attelé
28/07/19 4 Trot 12 000€ 2 600m Le Touquet Gamin de Marny 1'28"0 Attelé
28/07/19 0 Trot 12 000€ 2 625m Le Touquet Fysalia Attelé
28/07/19 5 Trot 45 000€ 2 625m Le Touquet Atout du Hainaut 1'21"6 Attelé
29/07/19 0 Trot 18 000€ 2 700m La Capelle Feu des Pres Attelé lire

N'a été qu'un simple figurant au sein du peloton.

29/07/19 8 Trot 18 000€ 2 700m La Capelle Flamme Mencourt 1'16"0 Attelé lire

N'a été qu'une simple figurante au sein du peloton.

29/07/19 5 Trot 18 000€ 2 700m La Capelle Esther du Ganep 1'17"0 Attelé lire

Très vite en deuxième position côté corde, n'a quasiment jamais pu s'exprimer dans la ligne droite terminant avec beaucoup de ressources.

29/07/19 D Trot 18 000€ 2 700m La Capelle Elokai Attelé lire

Après avoir figuré, a été sanctionné à la sortie du tournant final.

03/08/19 6 Trot 22 000€ 2 900m Amiens Au Temps Dubonheur 1'16"5 Attelé
03/08/19 7 Trot 13 000€ 2 400m Amiens Gnaque 1'18"1 Attelé
03/08/19 0 Trot 17 000€ 2 925m Amiens Eros In Love Attelé
03/08/19 8 Trot 13 000€ 2 400m Amiens Felinara 1'17"5 Attelé
03/08/19 4 Trot 13 000€ 2 400m Amiens Falco d'Alci 1'17"1 Attelé
04/08/19 6 Trot 12 000€ 2 100m Le Touquet Gessy d'Or 1'20"5 Attelé
04/08/19 D Trot 12 000€ 2 100m Le Touquet Grace du Houlet Attelé
04/08/19 0 Trot 19 000€ 2 625m Le Touquet Beaute Darche Attelé
04/08/19 D Trot 12 000€ 2 600m Le Touquet Fille des Marais Attelé
04/08/19 5 Trot 12 000€ 2 600m Le Touquet Fee du Houlet 1'25"8 Attelé
05/08/19 0 Trot 18 000€ 2 550m Dieppe Dulcinee d'Arbaz Attelé
07/08/19 1 Trot 18 000€ 2 850m Mauquenchy Fringant Pacha 1'16"6 Attelé
07/08/19 5 Trot 18 000€ 2 850m Mauquenchy Fortune de Cerisy 1'17"9 Attelé
09/08/19 7 Trot 18 000€ 2 700m La Capelle For Ever Mencourt 1'15"5 Attelé